sensor_id;sensor_type;location;lat;lon;timestamp;P1;durP1;ratioP1;P2;durP2;ratioP2
65130;SDS011;51709;54.912;8.316;2024-01-11T00:02:28;0.75;;;0.75;;
65130;SDS011;51709;54.912;8.316;2024-01-11T00:07:49;0.57;;;0.57;;
65130;SDS011;51709;54.912;8.316;2024-01-11T00:13:10;4.15;;;0.45;;
65130;SDS011;51709;54.912;8.316;2024-01-11T00:18:30;1.00;;;0.52;;
65130;SDS011;51709;54.912;8.316;2024-01-11T00:23:51;0.73;;;0.32;;
65130;SDS011;51709;54.912;8.316;2024-01-11T00:29:12;1.88;;;0.70;;
65130;SDS011;51709;54.912;8.316;2024-01-11T00:34:32;0.30;;;0.30;;
65130;SDS011;51709;54.912;8.316;2024-01-11T00:39:53;4.57;;;0.85;;
65130;SDS011;51709;54.912;8.316;2024-01-11T00:45:13;0.50;;;0.50;;
65130;SDS011;51709;54.912;8.316;2024-01-11T00:50:34;1.27;;;0.70;;
65130;SDS011;51709;54.912;8.316;2024-01-11T00:55:55;4.25;;;1.48;;
65130;SDS011;51709;54.912;8.316;2024-01-11T01:01:15;5.60;;;0.73;;
65130;SDS011;51709;54.912;8.316;2024-01-11T01:06:36;8.68;;;0.95;;
65130;SDS011;51709;54.912;8.316;2024-01-11T01:11:57;0.70;;;0.70;;
65130;SDS011;51709;54.912;8.316;2024-01-11T01:17:17;0.40;;;0.40;;
65130;SDS011;51709;54.912;8.316;2024-01-11T01:22:38;3.15;;;0.68;;
65130;SDS011;51709;54.912;8.316;2024-01-11T01:27:58;3.00;;;0.60;;
65130;SDS011;51709;54.912;8.316;2024-01-11T01:33:21;1.40;;;0.77;;
65130;SDS011;51709;54.912;8.316;2024-01-11T01:38:41;2.42;;;0.73;;
65130;SDS011;51709;54.912;8.316;2024-01-11T01:44:02;0.38;;;0.38;;
65130;SDS011;51709;54.912;8.316;2024-01-11T01:49:23;0.80;;;0.73;;
65130;SDS011;51709;54.912;8.316;2024-01-11T01:54:44;0.85;;;0.50;;
65130;SDS011;51709;54.912;8.316;2024-01-11T02:00:05;2.20;;;0.65;;
65130;SDS011;51709;54.912;8.316;2024-01-11T02:05:34;1.67;;;0.85;;
65130;SDS011;51709;54.912;8.316;2024-01-11T02:10:55;2.88;;;0.70;;
65130;SDS011;51709;54.912;8.316;2024-01-11T02:16:17;0.63;;;0.63;;
65130;SDS011;51709;54.912;8.316;2024-01-11T02:21:37;3.75;;;0.93;;
65130;SDS011;51709;54.912;8.316;2024-01-11T02:26:59;0.85;;;0.60;;
65130;SDS011;51709;54.912;8.316;2024-01-11T02:32:22;4.22;;;0.88;;
65130;SDS011;51709;54.912;8.316;2024-01-11T02:37:42;1.25;;;0.70;;
65130;SDS011;51709;54.912;8.316;2024-01-11T02:43:08;3.50;;;1.02;;
65130;SDS011;51709;54.912;8.316;2024-01-11T02:48:30;2.90;;;0.95;;
65130;SDS011;51709;54.912;8.316;2024-01-11T02:53:51;5.00;;;1.23;;
65130;SDS011;51709;54.912;8.316;2024-01-11T02:59:14;1.43;;;1.33;;
65130;SDS011;51709;54.912;8.316;2024-01-11T03:04:35;0.63;;;0.55;;
65130;SDS011;51709;54.912;8.316;2024-01-11T03:09:56;2.05;;;0.93;;
65130;SDS011;51709;54.912;8.316;2024-01-11T03:15:16;2.25;;;0.82;;
65130;SDS011;51709;54.912;8.316;2024-01-11T03:20:37;1.05;;;0.60;;
65130;SDS011;51709;54.912;8.316;2024-01-11T03:25:58;1.10;;;0.85;;
65130;SDS011;51709;54.912;8.316;2024-01-11T03:31:19;2.63;;;0.90;;
65130;SDS011;51709;54.912;8.316;2024-01-11T03:36:40;1.27;;;0.55;;
65130;SDS011;51709;54.912;8.316;2024-01-11T03:42:00;5.25;;;0.75;;
65130;SDS011;51709;54.912;8.316;2024-01-11T03:47:21;0.47;;;0.45;;
65130;SDS011;51709;54.912;8.316;2024-01-11T03:52:42;1.25;;;0.70;;
65130;SDS011;51709;54.912;8.316;2024-01-11T03:58:03;1.85;;;0.73;;
65130;SDS011;51709;54.912;8.316;2024-01-11T04:03:23;0.90;;;0.82;;
65130;SDS011;51709;54.912;8.316;2024-01-11T04:08:44;7.07;;;1.10;;
65130;SDS011;51709;54.912;8.316;2024-01-11T04:14:06;2.40;;;0.75;;
65130;SDS011;51709;54.912;8.316;2024-01-11T04:19:26;3.42;;;0.88;;
65130;SDS011;51709;54.912;8.316;2024-01-11T04:24:48;2.97;;;0.82;;
65130;SDS011;51709;54.912;8.316;2024-01-11T04:30:08;8.40;;;1.40;;
65130;SDS011;51709;54.912;8.316;2024-01-11T04:35:29;10.02;;;1.63;;
65130;SDS011;51709;54.912;8.316;2024-01-11T04:40:50;8.68;;;1.35;;
65130;SDS011;51709;54.912;8.316;2024-01-11T04:51:37;5.65;;;1.23;;
65130;SDS011;51709;54.912;8.316;2024-01-11T04:56:58;2.40;;;1.08;;
65130;SDS011;51709;54.912;8.316;2024-01-11T05:02:22;5.60;;;1.25;;
65130;SDS011;51709;54.912;8.316;2024-01-11T05:07:42;2.90;;;0.80;;
65130;SDS011;51709;54.912;8.316;2024-01-11T05:13:03;4.45;;;1.27;;
65130;SDS011;51709;54.912;8.316;2024-01-11T05:18:24;5.47;;;0.80;;
65130;SDS011;51709;54.912;8.316;2024-01-11T05:23:45;8.93;;;1.75;;
65130;SDS011;51709;54.912;8.316;2024-01-11T05:29:05;6.28;;;1.10;;
65130;SDS011;51709;54.912;8.316;2024-01-11T05:34:26;12.40;;;1.00;;
65130;SDS011;51709;54.912;8.316;2024-01-11T05:39:47;7.63;;;1.75;;
65130;SDS011;51709;54.912;8.316;2024-01-11T05:45:08;7.53;;;0.82;;
65130;SDS011;51709;54.912;8.316;2024-01-11T05:50:28;5.18;;;0.80;;
65130;SDS011;51709;54.912;8.316;2024-01-11T05:55:49;2.80;;;0.55;;
65130;SDS011;51709;54.912;8.316;2024-01-11T06:01:12;13.17;;;1.67;;
65130;SDS011;51709;54.912;8.316;2024-01-11T06:06:52;10.90;;;1.20;;
65130;SDS011;51709;54.912;8.316;2024-01-11T06:12:12;7.30;;;1.30;;
65130;SDS011;51709;54.912;8.316;2024-01-11T06:17:34;2.10;;;0.68;;
65130;SDS011;51709;54.912;8.316;2024-01-11T06:22:54;6.85;;;1.33;;
65130;SDS011;51709;54.912;8.316;2024-01-11T06:28:15;1.90;;;0.80;;
65130;SDS011;51709;54.912;8.316;2024-01-11T06:33:36;7.82;;;1.08;;
65130;SDS011;51709;54.912;8.316;2024-01-11T06:38:57;3.65;;;1.25;;
65130;SDS011;51709;54.912;8.316;2024-01-11T06:44:19;19.23;;;1.70;;
65130;SDS011;51709;54.912;8.316;2024-01-11T06:49:39;8.57;;;1.13;;
65130;SDS011;51709;54.912;8.316;2024-01-11T06:55:02;8.60;;;1.25;;
65130;SDS011;51709;54.912;8.316;2024-01-11T07:00:25;6.15;;;2.00;;
65130;SDS011;51709;54.912;8.316;2024-01-11T07:05:46;9.57;;;2.03;;
65130;SDS011;51709;54.912;8.316;2024-01-11T07:11:06;16.50;;;1.90;;
65130;SDS011;51709;54.912;8.316;2024-01-11T07:16:28;11.85;;;2.60;;
65130;SDS011;51709;54.912;8.316;2024-01-11T07:21:48;10.48;;;3.05;;
65130;SDS011;51709;54.912;8.316;2024-01-11T07:27:10;11.32;;;2.47;;
65130;SDS011;51709;54.912;8.316;2024-01-11T07:32:30;11.23;;;2.67;;
65130;SDS011;51709;54.912;8.316;2024-01-11T07:37:51;18.05;;;3.42;;
65130;SDS011;51709;54.912;8.316;2024-01-11T07:43:11;20.23;;;3.13;;
65130;SDS011;51709;54.912;8.316;2024-01-11T07:48:34;24.33;;;3.92;;
65130;SDS011;51709;54.912;8.316;2024-01-11T07:53:55;15.75;;;2.65;;
65130;SDS011;51709;54.912;8.316;2024-01-11T07:59:17;20.23;;;2.42;;
65130;SDS011;51709;54.912;8.316;2024-01-11T08:04:37;15.20;;;1.83;;
65130;SDS011;51709;54.912;8.316;2024-01-11T08:09:59;16.65;;;3.03;;
65130;SDS011;51709;54.912;8.316;2024-01-11T08:15:19;15.73;;;2.15;;
65130;SDS011;51709;54.912;8.316;2024-01-11T08:20:39;14.82;;;2.75;;
65130;SDS011;51709;54.912;8.316;2024-01-11T08:26:00;25.27;;;2.53;;
65130;SDS011;51709;54.912;8.316;2024-01-11T08:31:21;21.88;;;2.88;;
65130;SDS011;51709;54.912;8.316;2024-01-11T08:36:42;16.27;;;2.40;;
65130;SDS011;51709;54.912;8.316;2024-01-11T08:42:02;19.38;;;2.55;;
65130;SDS011;51709;54.912;8.316;2024-01-11T08:47:24;17.83;;;2.00;;
65130;SDS011;51709;54.912;8.316;2024-01-11T08:52:46;14.25;;;2.30;;
65130;SDS011;51709;54.912;8.316;2024-01-11T08:58:07;12.10;;;2.65;;
65130;SDS011;51709;54.912;8.316;2024-01-11T09:03:27;16.23;;;1.88;;
65130;SDS011;51709;54.912;8.316;2024-01-11T09:08:48;4.72;;;1.92;;
65130;SDS011;51709;54.912;8.316;2024-01-11T09:14:09;18.92;;;2.40;;
65130;SDS011;51709;54.912;8.316;2024-01-11T09:19:34;15.70;;;2.85;;
65130;SDS011;51709;54.912;8.316;2024-01-11T09:24:54;19.50;;;2.30;;
65130;SDS011;51709;54.912;8.316;2024-01-11T09:30:15;23.65;;;2.42;;
65130;SDS011;51709;54.912;8.316;2024-01-11T09:35:36;12.15;;;2.33;;
65130;SDS011;51709;54.912;8.316;2024-01-11T09:41:09;12.80;;;1.67;;
65130;SDS011;51709;54.912;8.316;2024-01-11T09:46:34;15.10;;;1.80;;
65130;SDS011;51709;54.912;8.316;2024-01-11T09:51:55;6.45;;;2.28;;
65130;SDS011;51709;54.912;8.316;2024-01-11T09:57:19;14.70;;;2.33;;
65130;SDS011;51709;54.912;8.316;2024-01-11T10:02:46;19.35;;;2.58;;
65130;SDS011;51709;54.912;8.316;2024-01-11T10:08:07;8.07;;;1.83;;
65130;SDS011;51709;54.912;8.316;2024-01-11T10:13:29;9.63;;;1.92;;
65130;SDS011;51709;54.912;8.316;2024-01-11T10:18:53;6.57;;;1.75;;
65130;SDS011;51709;54.912;8.316;2024-01-11T10:24:18;5.22;;;1.15;;
65130;SDS011;51709;54.912;8.316;2024-01-11T10:29:40;10.95;;;1.45;;
65130;SDS011;51709;54.912;8.316;2024-01-11T10:35:01;11.95;;;2.22;;
65130;SDS011;51709;54.912;8.316;2024-01-11T10:40:25;10.07;;;1.75;;
65130;SDS011;51709;54.912;8.316;2024-01-11T10:45:47;13.30;;;1.95;;
65130;SDS011;51709;54.912;8.316;2024-01-11T10:51:08;16.60;;;3.28;;
65130;SDS011;51709;54.912;8.316;2024-01-11T10:56:32;7.40;;;1.80;;
65130;SDS011;51709;54.912;8.316;2024-01-11T11:01:54;11.50;;;2.28;;
65130;SDS011;51709;54.912;8.316;2024-01-11T11:07:17;9.45;;;2.65;;
65130;SDS011;51709;54.912;8.316;2024-01-11T11:12:39;6.68;;;1.20;;
65130;SDS011;51709;54.912;8.316;2024-01-11T11:18:00;12.45;;;1.70;;
65130;SDS011;51709;54.912;8.316;2024-01-11T11:23:22;9.18;;;1.85;;
65130;SDS011;51709;54.912;8.316;2024-01-11T11:28:43;5.35;;;1.63;;
65130;SDS011;51709;54.912;8.316;2024-01-11T11:34:05;9.95;;;1.60;;
65130;SDS011;51709;54.912;8.316;2024-01-11T11:39:26;7.65;;;1.67;;
65130;SDS011;51709;54.912;8.316;2024-01-11T11:44:48;9.27;;;1.80;;
65130;SDS011;51709;54.912;8.316;2024-01-11T11:50:10;7.70;;;1.73;;
65130;SDS011;51709;54.912;8.316;2024-01-11T11:55:32;4.38;;;1.60;;
65130;SDS011;51709;54.912;8.316;2024-01-11T12:00:55;6.97;;;1.90;;
65130;SDS011;51709;54.912;8.316;2024-01-11T12:06:19;9.77;;;1.92;;
65130;SDS011;51709;54.912;8.316;2024-01-11T12:11:43;10.32;;;2.40;;
65130;SDS011;51709;54.912;8.316;2024-01-11T12:17:14;7.05;;;1.67;;
65130;SDS011;51709;54.912;8.316;2024-01-11T12:22:34;8.07;;;1.95;;
65130;SDS011;51709;54.912;8.316;2024-01-11T12:27:55;6.18;;;1.77;;
65130;SDS011;51709;54.912;8.316;2024-01-11T12:33:16;18.55;;;1.80;;
65130;SDS011;51709;54.912;8.316;2024-01-11T12:38:37;9.25;;;1.77;;
65130;SDS011;51709;54.912;8.316;2024-01-11T12:44:09;9.23;;;1.95;;
65130;SDS011;51709;54.912;8.316;2024-01-11T12:49:30;16.38;;;5.45;;
65130;SDS011;51709;54.912;8.316;2024-01-11T12:54:53;5.93;;;1.92;;
65130;SDS011;51709;54.912;8.316;2024-01-11T13:00:17;10.52;;;2.53;;
65130;SDS011;51709;54.912;8.316;2024-01-11T13:05:38;8.90;;;1.90;;
65130;SDS011;51709;54.912;8.316;2024-01-11T13:10:59;8.82;;;1.70;;
65130;SDS011;51709;54.912;8.316;2024-01-11T13:16:21;7.00;;;1.80;;
65130;SDS011;51709;54.912;8.316;2024-01-11T13:21:44;13.00;;;2.00;;
65130;SDS011;51709;54.912;8.316;2024-01-11T13:27:05;7.18;;;1.85;;
65130;SDS011;51709;54.912;8.316;2024-01-11T13:32:26;12.35;;;1.88;;
65130;SDS011;51709;54.912;8.316;2024-01-11T13:37:47;13.02;;;2.08;;
65130;SDS011;51709;54.912;8.316;2024-01-11T13:43:08;8.75;;;1.30;;
65130;SDS011;51709;54.912;8.316;2024-01-11T13:48:30;10.60;;;1.85;;
65130;SDS011;51709;54.912;8.316;2024-01-11T13:53:54;8.75;;;1.40;;
65130;SDS011;51709;54.912;8.316;2024-01-11T13:59:14;5.40;;;2.10;;
65130;SDS011;51709;54.912;8.316;2024-01-11T14:04:35;14.82;;;2.13;;
65130;SDS011;51709;54.912;8.316;2024-01-11T14:09:56;16.52;;;3.03;;
65130;SDS011;51709;54.912;8.316;2024-01-11T14:15:16;6.72;;;2.65;;
65130;SDS011;51709;54.912;8.316;2024-01-11T14:20:37;12.43;;;2.72;;
65130;SDS011;51709;54.912;8.316;2024-01-11T14:25:58;13.25;;;2.95;;
65130;SDS011;51709;54.912;8.316;2024-01-11T14:31:19;14.40;;;2.45;;
65130;SDS011;51709;54.912;8.316;2024-01-11T14:36:39;8.55;;;2.20;;
65130;SDS011;51709;54.912;8.316;2024-01-11T14:42:00;7.45;;;1.83;;
65130;SDS011;51709;54.912;8.316;2024-01-11T14:47:20;6.88;;;2.08;;
65130;SDS011;51709;54.912;8.316;2024-01-11T14:52:42;13.73;;;2.25;;
65130;SDS011;51709;54.912;8.316;2024-01-11T14:58:03;20.92;;;2.38;;
65130;SDS011;51709;54.912;8.316;2024-01-11T15:03:25;11.32;;;2.45;;
65130;SDS011;51709;54.912;8.316;2024-01-11T15:08:46;9.60;;;2.00;;
65130;SDS011;51709;54.912;8.316;2024-01-11T15:14:08;11.25;;;1.85;;
65130;SDS011;51709;54.912;8.316;2024-01-11T15:19:32;10.55;;;2.22;;
65130;SDS011;51709;54.912;8.316;2024-01-11T15:24:53;9.52;;;2.00;;
65130;SDS011;51709;54.912;8.316;2024-01-11T15:30:14;13.60;;;2.40;;
65130;SDS011;51709;54.912;8.316;2024-01-11T15:35:35;4.70;;;1.70;;
65130;SDS011;51709;54.912;8.316;2024-01-11T15:40:55;9.25;;;2.58;;
65130;SDS011;51709;54.912;8.316;2024-01-11T15:46:17;12.50;;;2.13;;
65130;SDS011;51709;54.912;8.316;2024-01-11T15:51:37;5.53;;;3.42;;
65130;SDS011;51709;54.912;8.316;2024-01-11T15:56:58;14.32;;;3.33;;
65130;SDS011;51709;54.912;8.316;2024-01-11T16:02:18;16.75;;;3.25;;
65130;SDS011;51709;54.912;8.316;2024-01-11T16:07:41;20.05;;;3.40;;
65130;SDS011;51709;54.912;8.316;2024-01-11T16:13:01;11.15;;;3.63;;
65130;SDS011;51709;54.912;8.316;2024-01-11T16:18:22;12.57;;;3.97;;
65130;SDS011;51709;54.912;8.316;2024-01-11T16:23:45;10.60;;;2.85;;
65130;SDS011;51709;54.912;8.316;2024-01-11T16:29:05;17.08;;;4.95;;
65130;SDS011;51709;54.912;8.316;2024-01-11T16:34:26;13.05;;;5.15;;
65130;SDS011;51709;54.912;8.316;2024-01-11T16:39:48;18.08;;;5.57;;
65130;SDS011;51709;54.912;8.316;2024-01-11T16:45:09;7.85;;;3.72;;
65130;SDS011;51709;54.912;8.316;2024-01-11T16:50:30;11.60;;;4.50;;
65130;SDS011;51709;54.912;8.316;2024-01-11T16:55:51;17.15;;;4.25;;
65130;SDS011;51709;54.912;8.316;2024-01-11T17:01:12;23.23;;;6.30;;
65130;SDS011;51709;54.912;8.316;2024-01-11T17:06:33;18.77;;;7.55;;
65130;SDS011;51709;54.912;8.316;2024-01-11T17:11:55;20.55;;;6.03;;
65130;SDS011;51709;54.912;8.316;2024-01-11T17:17:16;19.65;;;6.40;;
65130;SDS011;51709;54.912;8.316;2024-01-11T17:22:37;16.42;;;6.35;;
65130;SDS011;51709;54.912;8.316;2024-01-11T17:27:57;18.88;;;6.80;;
65130;SDS011;51709;54.912;8.316;2024-01-11T17:33:18;13.90;;;6.07;;
65130;SDS011;51709;54.912;8.316;2024-01-11T17:38:43;13.13;;;5.88;;
65130;SDS011;51709;54.912;8.316;2024-01-11T17:44:04;11.25;;;5.93;;
65130;SDS011;51709;54.912;8.316;2024-01-11T17:49:24;12.77;;;6.18;;
65130;SDS011;51709;54.912;8.316;2024-01-11T17:54:46;22.52;;;6.55;;
65130;SDS011;51709;54.912;8.316;2024-01-11T18:00:06;8.75;;;5.82;;
65130;SDS011;51709;54.912;8.316;2024-01-11T18:05:28;11.60;;;5.25;;
65130;SDS011;51709;54.912;8.316;2024-01-11T18:10:49;9.43;;;5.88;;
65130;SDS011;51709;54.912;8.316;2024-01-11T18:16:09;8.45;;;5.18;;
65130;SDS011;51709;54.912;8.316;2024-01-11T18:21:30;8.13;;;5.28;;
65130;SDS011;51709;54.912;8.316;2024-01-11T18:26:51;10.27;;;5.40;;
65130;SDS011;51709;54.912;8.316;2024-01-11T18:32:11;11.98;;;5.93;;
65130;SDS011;51709;54.912;8.316;2024-01-11T18:37:32;12.20;;;6.35;;
65130;SDS011;51709;54.912;8.316;2024-01-11T18:42:53;10.90;;;4.70;;
65130;SDS011;51709;54.912;8.316;2024-01-11T18:48:14;13.63;;;5.18;;
65130;SDS011;51709;54.912;8.316;2024-01-11T18:53:37;10.40;;;4.00;;
65130;SDS011;51709;54.912;8.316;2024-01-11T18:59:01;6.53;;;4.13;;
65130;SDS011;51709;54.912;8.316;2024-01-11T19:04:22;8.32;;;2.90;;
65130;SDS011;51709;54.912;8.316;2024-01-11T19:09:43;8.95;;;3.25;;
65130;SDS011;51709;54.912;8.316;2024-01-11T19:15:04;8.35;;;4.28;;
65130;SDS011;51709;54.912;8.316;2024-01-11T19:20:25;10.15;;;4.30;;
65130;SDS011;51709;54.912;8.316;2024-01-11T19:25:46;8.25;;;3.53;;
65130;SDS011;51709;54.912;8.316;2024-01-11T19:31:06;9.57;;;3.60;;
65130;SDS011;51709;54.912;8.316;2024-01-11T19:36:27;13.23;;;4.40;;
65130;SDS011;51709;54.912;8.316;2024-01-11T19:41:48;8.52;;;4.13;;
65130;SDS011;51709;54.912;8.316;2024-01-11T19:47:09;22.38;;;5.95;;
65130;SDS011;51709;54.912;8.316;2024-01-11T19:52:29;18.52;;;5.22;;
65130;SDS011;51709;54.912;8.316;2024-01-11T19:57:51;15.05;;;5.78;;
65130;SDS011;51709;54.912;8.316;2024-01-11T20:03:13;17.02;;;5.50;;
65130;SDS011;51709;54.912;8.316;2024-01-11T20:08:34;14.05;;;4.97;;
65130;SDS011;51709;54.912;8.316;2024-01-11T20:13:56;22.63;;;7.40;;
65130;SDS011;51709;54.912;8.316;2024-01-11T20:19:16;24.92;;;6.43;;
65130;SDS011;51709;54.912;8.316;2024-01-11T20:24:37;19.67;;;6.28;;
65130;SDS011;51709;54.912;8.316;2024-01-11T20:29:57;28.02;;;6.78;;
65130;SDS011;51709;54.912;8.316;2024-01-11T20:35:18;33.90;;;7.32;;
65130;SDS011;51709;54.912;8.316;2024-01-11T20:40:38;20.15;;;7.57;;
65130;SDS011;51709;54.912;8.316;2024-01-11T20:45:59;24.55;;;7.85;;
65130;SDS011;51709;54.912;8.316;2024-01-11T20:51:20;20.98;;;5.88;;
65130;SDS011;51709;54.912;8.316;2024-01-11T20:56:41;13.40;;;6.03;;
65130;SDS011;51709;54.912;8.316;2024-01-11T21:02:03;11.90;;;6.28;;
65130;SDS011;51709;54.912;8.316;2024-01-11T21:07:24;11.02;;;5.82;;
65130;SDS011;51709;54.912;8.316;2024-01-11T21:12:45;11.23;;;5.57;;
65130;SDS011;51709;54.912;8.316;2024-01-11T21:18:05;9.77;;;5.28;;
65130;SDS011;51709;54.912;8.316;2024-01-11T21:23:26;13.52;;;5.40;;
65130;SDS011;51709;54.912;8.316;2024-01-11T21:28:46;17.30;;;5.95;;
65130;SDS011;51709;54.912;8.316;2024-01-11T21:34:10;10.07;;;5.83;;
65130;SDS011;51709;54.912;8.316;2024-01-11T21:39:30;15.77;;;6.00;;
65130;SDS011;51709;54.912;8.316;2024-01-11T21:44:53;15.80;;;5.93;;
65130;SDS011;51709;54.912;8.316;2024-01-11T21:50:13;10.50;;;5.40;;
65130;SDS011;51709;54.912;8.316;2024-01-11T21:55:34;16.77;;;6.60;;
65130;SDS011;51709;54.912;8.316;2024-01-11T22:00:55;25.08;;;7.20;;
65130;SDS011;51709;54.912;8.316;2024-01-11T22:06:16;13.85;;;6.13;;
65130;SDS011;51709;54.912;8.316;2024-01-11T22:11:37;16.58;;;6.85;;
65130;SDS011;51709;54.912;8.316;2024-01-11T22:16:57;15.23;;;6.35;;
65130;SDS011;51709;54.912;8.316;2024-01-11T22:22:17;18.80;;;7.15;;
65130;SDS011;51709;54.912;8.316;2024-01-11T22:27:38;22.27;;;7.18;;
65130;SDS011;51709;54.912;8.316;2024-01-11T22:33:00;20.48;;;6.82;;
65130;SDS011;51709;54.912;8.316;2024-01-11T22:38:21;37.28;;;8.20;;
65130;SDS011;51709;54.912;8.316;2024-01-11T22:43:41;26.83;;;9.48;;
65130;SDS011;51709;54.912;8.316;2024-01-11T22:49:02;51.72;;;13.73;;
65130;SDS011;51709;54.912;8.316;2024-01-11T22:54:25;62.95;;;13.43;;
65130;SDS011;51709;54.912;8.316;2024-01-11T22:59:45;47.22;;;10.82;;
65130;SDS011;51709;54.912;8.316;2024-01-11T23:05:06;44.53;;;11.55;;
65130;SDS011;51709;54.912;8.316;2024-01-11T23:10:27;51.92;;;11.60;;
65130;SDS011;51709;54.912;8.316;2024-01-11T23:15:48;35.53;;;9.00;;
65130;SDS011;51709;54.912;8.316;2024-01-11T23:21:09;77.10;;;6.95;;
65130;SDS011;51709;54.912;8.316;2024-01-11T23:26:29;49.38;;;3.28;;
65130;SDS011;51709;54.912;8.316;2024-01-11T23:31:50;37.42;;;2.55;;
65130;SDS011;51709;54.912;8.316;2024-01-11T23:37:10;23.27;;;1.45;;
65130;SDS011;51709;54.912;8.316;2024-01-11T23:42:31;26.13;;;1.05;;
65130;SDS011;51709;54.912;8.316;2024-01-11T23:47:51;14.77;;;1.48;;
65130;SDS011;51709;54.912;8.316;2024-01-11T23:53:12;33.92;;;1.90;;
65130;SDS011;51709;54.912;8.316;2024-01-11T23:58:33;17.70;;;1.33;;
